Time;durP1;ratioP1;P1;durP2;ratioP2;P2;SDS_P1;SDS_P2;PMS_P1;PMS_P2;Temp;Humidity;BMP_temperature;BMP_pressure;BME280_temperature;BME280_humidity;BME280_pressure;Samples;Min_cycle;Max_cycle;Signal;HPM_P1;HPM_P2
2021/04/14 00:01:16;;;;;;;;;;;-2.00;96.50;;;;;;5033415;28;19914;-68
2021/04/14 00:03:42;;;;;;;;;;;-1.90;96.70;;;;;;5026331;28;19913;-68
2021/04/14 00:06:08;;;;;;;;;;;-1.90;96.50;;;;;;5037472;28;19909;-68
2021/04/14 00:08:34;;;;;;;;;;;-1.90;96.30;;;;;;5028761;28;19922;-67
2021/04/14 00:11:00;;;;;;;;;;;-1.90;96.20;;;;;;5024930;28;19913;-67
2021/04/14 00:13:29;;;;;;;;;;;-1.90;96.20;;;;;;5038139;28;19987;-68
2021/04/14 00:15:56;;;;;;;;;;;-2.00;96.10;;;;;;5037472;28;19917;-68
2021/04/14 00:18:22;;;;;;;;;;;-2.10;96.30;;;;;;5037975;28;19919;-67
2021/04/14 00:20:48;;;;;;;;;;;-2.10;96.40;;;;;;5038389;28;20000;-65
2021/04/14 00:23:15;;;;;;;;;;;-2.10;96.50;;;;;;5036446;28;19964;-66
2021/04/14 00:25:43;;;;;;;;;;;-2.20;96.70;;;;;;5036661;28;20293;-67
2021/04/14 00:28:13;;;;;;;;;;;-2.30;96.70;;;;;;5018875;28;19914;-67
2021/04/14 00:30:39;;;;;;;;;;;-2.30;96.70;;;;;;5026409;28;19956;-68
2021/04/14 00:33:04;;;;;;;;;;;-2.30;96.90;;;;;;5029596;28;19948;-68
2021/04/14 00:35:30;;;;;;;;;;;-2.30;96.90;;;;;;5030485;28;19959;-67
2021/04/14 00:37:56;;;;;;;;;;;-2.30;97.00;;;;;;5035928;28;19932;-67
2021/04/14 00:40:25;;;;;;;;;;;-2.30;96.90;;;;;;5037998;28;19913;-68
2021/04/14 00:42:51;;;;;;;;;;;-2.30;97.00;;;;;;5035941;28;19913;-67
2021/04/14 00:45:16;;;;;;;;;;;-2.40;96.90;;;;;;5035624;28;20217;-68
2021/04/14 00:47:42;;;;;;;;;;;-2.40;96.90;;;;;;5038159;28;19913;-68
2021/04/14 00:50:08;;;;;;;;;;;-2.40;96.90;;;;;;5037016;28;19924;-68
2021/04/14 00:52:34;;;;;;;;;;;-2.40;96.90;;;;;;5029461;28;19923;-68
2021/04/14 00:54:59;;;;;;;;;;;-2.40;97.00;;;;;;5030588;28;19992;-67
2021/04/14 00:57:25;;;;;;;;;;;-2.50;96.80;;;;;;5033564;28;19963;-67
2021/04/14 00:59:51;;;;;;;;;;;-2.60;96.90;;;;;;5033724;28;20301;-67
2021/04/14 01:02:16;;;;;;;;;;;-2.70;97.10;;;;;;5034963;28;19914;-67
2021/04/14 01:04:42;;;;;;;;;;;-2.80;96.90;;;;;;5026458;28;20310;-67
2021/04/14 01:07:08;;;;;;;;;;;-2.80;96.90;;;;;;5034464;28;19920;-68
2021/04/14 01:09:33;;;;;;;;;;;-2.70;97.10;;;;;;5033184;28;19917;-68
2021/04/14 01:11:59;;;;;;;;;;;-2.70;97.20;;;;;;5035084;28;20276;-68
2021/04/14 01:14:24;;;;;;;;;;;-2.70;97.30;;;;;;5027353;28;19917;-68
2021/04/14 01:16:50;;;;;;;;;;;-2.80;97.00;;;;;;5036470;28;19913;-67
2021/04/14 01:19:15;;;;;;;;;;;-2.90;97.10;;;;;;5037710;28;19921;-67
2021/04/14 01:21:42;;;;;;;;;;;-3.00;97.00;;;;;;5028955;28;19917;-67
2021/04/14 01:24:09;;;;;;;;;;;-2.90;97.30;;;;;;5030857;28;20024;-67
2021/04/14 01:26:35;;;;;;;;;;;-2.80;97.10;;;;;;5032504;28;19921;-66
2021/04/14 01:29:03;;;;;;;;;;;-2.80;97.10;;;;;;5028163;28;19979;-67
2021/04/14 01:31:34;;;;;;;;;;;-2.70;97.40;;;;;;5036013;28;19996;-66
2021/04/14 01:34:05;;;;;;;;;;;-2.70;97.20;;;;;;5036324;28;20260;-65
2021/04/14 01:36:31;;;;;;;;;;;-2.70;97.30;;;;;;5035808;28;19921;-65
2021/04/14 01:38:57;;;;;;;;;;;-2.60;97.30;;;;;;5034917;28;19914;-67
2021/04/14 01:41:23;;;;;;;;;;;-2.60;97.40;;;;;;5036758;28;20369;-66
2021/04/14 01:43:49;;;;;;;;;;;-2.50;97.40;;;;;;5036850;28;19917;-66
2021/04/14 01:46:15;;;;;;;;;;;-2.50;97.40;;;;;;5036877;28;19921;-66
2021/04/14 01:48:40;;;;;;;;;;;-2.50;97.20;;;;;;5032699;28;19917;-66
2021/04/14 01:51:06;;;;;;;;;;;-2.60;97.20;;;;;;5036414;28;19924;-68
2021/04/14 01:53:31;;;;;;;;;;;-2.70;97.00;;;;;;5035259;28;19920;-68
2021/04/14 01:55:57;;;;;;;;;;;-2.90;97.00;;;;;;5036433;28;20230;-68
2021/04/14 01:58:23;;;;;;;;;;;-3.00;97.20;;;;;;5036452;28;19917;-68
2021/04/14 02:00:53;;;;;;;;;;;-3.00;96.90;;;;;;5035749;28;19917;-68
2021/04/14 02:03:19;;;;;;;;;;;-2.90;97.10;;;;;;5035816;28;19913;-68
2021/04/14 02:05:44;;;;;;;;;;;-2.70;97.50;;;;;;5035862;28;19932;-67
2021/04/14 02:08:10;;;;;;;;;;;-2.70;97.50;;;;;;5030096;28;19913;-67
2021/04/14 02:10:37;;;;;;;;;;;-2.60;97.50;;;;;;5035972;28;19921;-68
2021/04/14 02:13:04;;;;;;;;;;;-2.70;97.30;;;;;;5036433;28;20029;-68
2021/04/14 02:15:32;;;;;;;;;;;-2.60;97.30;;;;;;5035660;28;19917;-67
2021/04/14 02:17:57;;;;;;;;;;;-2.50;97.30;;;;;;5035226;28;19913;-67
2021/04/14 02:20:23;;;;;;;;;;;-2.50;96.90;;;;;;5035192;28;20039;-68
2021/04/14 02:22:49;;;;;;;;;;;-2.50;96.90;;;;;;5025256;28;19921;-68
2021/04/14 02:25:16;;;;;;;;;;;-2.50;97.10;;;;;;5029617;28;19917;-68
2021/04/14 02:27:44;;;;;;;;;;;-2.50;97.20;;;;;;5035556;28;20008;-68
2021/04/14 02:30:21;;;;;;;;;;;-2.60;97.20;;;;;;5035596;28;19920;-67
2021/04/14 02:32:46;;;;;;;;;;;-2.60;97.30;;;;;;5035875;28;19913;-66
2021/04/14 02:35:12;;;;;;;;;;;-2.50;97.30;;;;;;5035371;28;19921;-67
2021/04/14 02:37:37;;;;;;;;;;;-2.50;97.30;;;;;;5034199;28;19939;-68
2021/04/14 02:40:07;;;;;;;;;;;-2.50;96.90;;;;;;5035628;28;19921;-68
2021/04/14 02:42:33;;;;;;;;;;;-2.60;97.20;;;;;;5035532;28;20314;-67
2021/04/14 02:44:58;;;;;;;;;;;-2.70;97.00;;;;;;5035747;28;20008;-66
2021/04/14 02:47:24;;;;;;;;;;;-2.90;97.00;;;;;;5034023;28;19963;-68
2021/04/14 02:49:52;;;;;;;;;;;-3.10;97.10;;;;;;5034889;28;19959;-67
2021/04/14 02:52:18;;;;;;;;;;;-3.30;96.80;;;;;;5032217;28;19928;-65
2021/04/14 02:54:43;;;;;;;;;;;-3.30;96.70;;;;;;5035287;28;19925;-68
2021/04/14 02:57:09;;;;;;;;;;;-3.30;96.90;;;;;;5032368;28;19913;-66
2021/04/14 02:59:34;;;;;;;;;;;-3.20;97.10;;;;;;5035597;28;19913;-68
2021/04/14 03:02:00;;;;;;;;;;;-3.20;97.20;;;;;;5031889;28;19921;-68
2021/04/14 03:04:26;;;;;;;;;;;-3.10;97.20;;;;;;5020211;28;19921;-68
2021/04/14 03:06:54;;;;;;;;;;;-2.90;97.60;;;;;;5034909;28;19920;-68
2021/04/14 03:09:20;;;;;;;;;;;-2.80;97.60;;;;;;5033767;28;19913;-68
2021/04/14 03:11:45;;;;;;;;;;;-2.70;97.50;;;;;;5034811;28;19963;-68
2021/04/14 03:14:11;;;;;;;;;;;-2.60;97.50;;;;;;5035242;28;19925;-68
2021/04/14 03:16:36;;;;;;;;;;;-2.60;97.50;;;;;;5032786;28;19924;-68
2021/04/14 03:19:02;;;;;;;;;;;-2.60;97.40;;;;;;5035074;28;19917;-68
2021/04/14 03:21:28;;;;;;;;;;;-2.50;97.30;;;;;;5027067;28;19917;-68
2021/04/14 03:23:53;;;;;;;;;;;-2.50;97.00;;;;;;5032911;28;19936;-66
2021/04/14 03:26:19;;;;;;;;;;;-2.60;97.00;;;;;;5033850;28;19921;-67
2021/04/14 03:28:45;;;;;;;;;;;-2.60;97.20;;;;;;5030426;28;20008;-66
2021/04/14 03:31:10;;;;;;;;;;;-2.80;96.90;;;;;;5030629;28;19934;-68
2021/04/14 03:33:36;;;;;;;;;;;-3.00;97.10;;;;;;5033454;28;19960;-68
2021/04/14 03:36:02;;;;;;;;;;;-3.20;96.90;;;;;;5034224;28;19917;-66
2021/04/14 03:38:33;;;;;;;;;;;-3.30;96.80;;;;;;5029147;28;20027;-67
2021/04/14 03:41:01;;;;;;;;;;;-3.20;97.20;;;;;;5031122;28;19913;-67
2021/04/14 03:43:26;;;;;;;;;;;-3.20;97.30;;;;;;5035472;28;19920;-67
2021/04/14 03:45:55;;;;;;;;;;;-3.20;97.30;;;;;;5033589;28;19920;-67
2021/04/14 03:48:20;;;;;;;;;;;-3.20;97.40;;;;;;5034831;28;20346;-66
2021/04/14 03:50:46;;;;;;;;;;;-3.30;97.30;;;;;;5032641;28;20000;-68
2021/04/14 03:53:12;;;;;;;;;;;-3.40;97.30;;;;;;5031696;28;20021;-68
2021/04/14 03:55:37;;;;;;;;;;;-3.70;97.30;;;;;;5034770;28;19921;-66
2021/04/14 03:58:15;;;;;;;;;;;-3.90;96.90;;;;;;5029200;28;20032;-67
2021/04/14 04:01:01;;;;;;;;;;;-4.10;97.00;;;;;;5030247;28;20310;-66
2021/04/14 04:03:49;;;;;;;;;;;-4.20;96.90;;;;;;5028666;28;19920;-66
2021/04/14 04:06:33;;;;;;;;;;;-4.30;96.80;;;;;;5034554;28;19913;-66
2021/04/14 04:09:16;;;;;;;;;;;-4.40;96.70;;;;;;5031668;28;19928;-66
2021/04/14 04:11:55;;;;;;;;;;;-4.40;96.70;;;;;;5028461;28;19914;-66
2021/04/14 04:14:35;;;;;;;;;;;-4.30;96.70;;;;;;5030782;28;19925;-66
2021/04/14 04:17:15;;;;;;;;;;;-4.10;96.60;;;;;;5032374;28;19944;-66
2021/04/14 04:19:51;;;;;;;;;;;-4.10;96.60;;;;;;5030059;28;19914;-66
2021/04/14 04:22:23;;;;;;;;;;;-4.20;96.80;;;;;;5028423;28;19924;-67
2021/04/14 04:24:51;;;;;;;;;;;-4.20;96.60;;;;;;5032882;28;19944;-67
2021/04/14 04:27:17;;;;;;;;;;;-4.20;96.70;;;;;;5029437;28;19945;-68
2021/04/14 04:29:42;;;;;;;;;;;-4.20;96.70;;;;;;5034690;28;19924;-67
2021/04/14 04:32:09;;;;;;;;;;;-4.30;96.90;;;;;;5024041;28;20306;-67
2021/04/14 04:34:34;;;;;;;;;;;-4.30;96.80;;;;;;5036198;28;20252;-66
2021/04/14 04:37:03;;;;;;;;;;;-4.30;96.50;;;;;;5037300;28;20031;-67
2021/04/14 04:39:28;;;;;;;;;;;-4.40;96.50;;;;;;5033525;28;20013;-66
2021/04/14 04:41:54;;;;;;;;;;;-4.30;96.40;;;;;;5031611;28;19913;-67
2021/04/14 04:44:19;;;;;;;;;;;-4.20;96.40;;;;;;5037261;28;19970;-67
2021/04/14 04:46:45;;;;;;;;;;;-4.00;96.50;;;;;;5037518;28;20020;-69
2021/04/14 04:49:10;;;;;;;;;;;-3.90;96.70;;;;;;5035972;28;19984;-68
2021/04/14 04:51:36;;;;;;;;;;;-3.80;96.80;;;;;;5026818;28;19913;-67
2021/04/14 04:54:02;;;;;;;;;;;-3.70;96.90;;;;;;5033742;28;19926;-68
2021/04/14 04:56:29;;;;;;;;;;;-3.60;96.90;;;;;;5034240;28;20292;-68
2021/04/14 04:58:54;;;;;;;;;;;-3.50;97.10;;;;;;5034037;28;19913;-68
2021/04/14 05:01:21;;;;;;;;;;;-3.50;97.00;;;;;;5030987;28;19983;-66
2021/04/14 05:03:49;;;;;;;;;;;-3.50;97.10;;;;;;5027542;28;19913;-67
2021/04/14 05:06:15;;;;;;;;;;;-3.40;97.30;;;;;;5029521;28;20171;-68
2021/04/14 05:08:40;;;;;;;;;;;-3.30;97.30;;;;;;5034585;28;19913;-68
2021/04/14 05:11:06;;;;;;;;;;;-3.30;97.20;;;;;;5032674;28;19924;-69
2021/04/14 05:13:31;;;;;;;;;;;-3.30;97.30;;;;;;5035690;28;19924;-66
2021/04/14 05:15:57;;;;;;;;;;;-3.40;97.20;;;;;;5035179;28;19917;-67
2021/04/14 05:18:22;;;;;;;;;;;-3.40;97.10;;;;;;5037670;28;20240;-68
2021/04/14 05:20:48;;;;;;;;;;;-3.40;97.00;;;;;;5037919;28;19913;-68
2021/04/14 05:23:14;;;;;;;;;;;-3.30;97.10;;;;;;5035954;28;19921;-68
2021/04/14 05:25:41;;;;;;;;;;;-3.30;97.20;;;;;;5037492;28;19944;-68
2021/04/14 05:28:09;;;;;;;;;;;-3.20;97.10;;;;;;5036902;28;19913;-68
2021/04/14 05:30:35;;;;;;;;;;;-3.20;97.00;;;;;;5037341;28;20259;-69
2021/04/14 05:33:02;;;;;;;;;;;-3.10;97.30;;;;;;5036246;28;19936;-68
2021/04/14 05:35:27;;;;;;;;;;;-3.10;97.50;;;;;;5017593;28;19970;-67
2021/04/14 05:37:53;;;;;;;;;;;-3.10;97.50;;;;;;5016635;28;19928;-68
2021/04/14 05:40:19;;;;;;;;;;;-3.10;97.30;;;;;;5036355;28;19913;-68
2021/04/14 05:42:45;;;;;;;;;;;-2.90;97.10;;;;;;5037218;28;19909;-67
2021/04/14 05:45:12;;;;;;;;;;;-2.70;97.20;;;;;;5036659;28;19914;-68
2021/04/14 05:47:38;;;;;;;;;;;-2.60;97.70;;;;;;5035402;28;19935;-68
2021/04/14 05:50:05;;;;;;;;;;;-2.30;97.50;;;;;;5037253;28;20302;-68
2021/04/14 05:52:34;;;;;;;;;;;-2.10;98.00;;;;;;5035410;28;19921;-68
2021/04/14 05:54:59;;;;;;;;;;;-2.00;98.00;;;;;;5036762;28;19970;-68
2021/04/14 05:57:25;;;;;;;;;;;-1.90;97.80;;;;;;5036878;28;20325;-68
2021/04/14 05:59:53;;;;;;;;;;;-1.70;97.40;;;;;;5036595;28;19913;-67
2021/04/14 06:02:18;;;;;;;;;;;-1.60;97.20;;;;;;5036911;28;19956;-67
2021/04/14 06:04:44;;;;;;;;;;;-1.40;96.90;;;;;;5035683;28;19956;-66
2021/04/14 06:07:10;;;;;;;;;;;-1.20;96.40;;;;;;5035493;28;19940;-68
2021/04/14 06:09:35;;;;;;;;;;;-1.10;95.80;;;;;;5036377;28;19966;-66
2021/04/14 06:12:01;;;;;;;;;;;-0.90;94.90;;;;;;5035010;28;19913;-66
2021/04/14 06:14:26;;;;;;;;;;;-0.70;94.30;;;;;;5036238;28;19917;-65
2021/04/14 06:16:52;;;;;;;;;;;-0.60;94.10;;;;;;5036698;28;20413;-68
2021/04/14 06:19:18;;;;;;;;;;;-0.40;92.90;;;;;;5036631;28;19909;-67
2021/04/14 06:21:43;;;;;;;;;;;-0.20;92.40;;;;;;5038234;28;19913;-66
2021/04/14 06:24:09;;;;;;;;;;;-0.10;91.50;;;;;;5042563;28;19917;-67
2021/04/14 06:29:00;;;;;;;;;;;0.00;90.20;;;;;;5035875;28;19920;-64
2021/04/14 06:31:26;;;;;;;;;;;0.10;89.80;;;;;;5036220;28;20617;-67
2021/04/14 06:33:55;;;;;;;;;;;0.20;89.60;;;;;;5036033;28;19917;-64
2021/04/14 06:36:21;;;;;;;;;;;0.20;89.40;;;;;;5036412;28;20313;-67
2021/04/14 06:38:50;;;;;;;;;;;0.20;89.30;;;;;;5035353;28;19909;-64
2021/04/14 06:44:09;;;;;;;;;;;0.30;89.70;;;;;;5035689;28;20241;-64
2021/04/14 06:46:35;;;;;;;;;;;0.30;89.50;;;;;;5035651;28;19913;-66
2021/04/14 06:49:19;;;;;;;;;;;0.40;89.60;;;;;;5035120;28;20003;-67
2021/04/14 06:51:56;;;;;;;;;;;0.40;89.80;;;;;;5016234;28;19913;-65
2021/04/14 06:54:28;;;;;;;;;;;0.60;89.80;;;;;;5027935;28;20028;-65
2021/04/14 06:56:58;;;;;;;;;;;0.70;89.70;;;;;;5036284;28;19917;-67
2021/04/14 06:59:25;;;;;;;;;;;0.70;89.00;;;;;;5035952;28;20004;-65
2021/04/14 07:01:53;;;;;;;;;;;0.70;89.00;;;;;;5036085;28;19953;-65
2021/04/14 07:04:24;;;;;;;;;;;0.70;89.40;;;;;;5042243;28;19916;-66
2021/04/14 07:06:52;;;;;;;;;;;0.80;89.30;;;;;;5055870;28;20202;-64
2021/04/14 07:09:42;;;;;;;;;;;0.90;88.80;;;;;;5053311;28;20315;-65
2021/04/14 07:12:09;;;;;;;;;;;1.00;88.40;;;;;;5032683;28;19964;-65
2021/04/14 07:14:35;;;;;;;;;;;1.10;88.40;;;;;;5035265;28;20016;-65
2021/04/14 07:17:06;;;;;;;;;;;1.10;87.70;;;;;;5036892;28;19967;-67
2021/04/14 07:19:32;;;;;;;;;;;1.10;87.60;;;;;;5035956;28;19936;-67
2021/04/14 07:22:01;;;;;;;;;;;1.20;88.20;;;;;;5035615;28;20255;-67
2021/04/14 07:24:42;;;;;;;;;;;1.20;87.60;;;;;;5035262;28;19967;-67
2021/04/14 07:27:07;;;;;;;;;;;1.20;87.60;;;;;;5034670;28;19909;-67
2021/04/14 07:29:38;;;;;;;;;;;1.40;88.00;;;;;;5034749;28;19909;-67
2021/04/14 07:32:09;;;;;;;;;;;1.60;87.30;;;;;;5034743;28;20253;-67
2021/04/14 07:34:57;;;;;;;;;;;1.60;86.70;;;;;;5035288;28;20019;-67
2021/04/14 07:37:25;;;;;;;;;;;1.70;87.10;;;;;;5034303;28;19916;-66
2021/04/14 07:39:54;;;;;;;;;;;1.90;86.40;;;;;;5035467;28;19909;-66
2021/04/14 07:42:24;;;;;;;;;;;2.00;86.30;;;;;;5035276;28;19959;-65
2021/04/14 07:44:55;;;;;;;;;;;2.00;85.90;;;;;;5035648;28;19937;-66
2021/04/14 07:47:22;;;;;;;;;;;2.20;86.30;;;;;;5034447;28;20306;-67
2021/04/14 07:49:48;;;;;;;;;;;2.40;86.00;;;;;;5035740;28;19955;-67
2021/04/14 07:52:17;;;;;;;;;;;2.60;85.30;;;;;;5033820;28;19913;-66
2021/04/14 07:54:46;;;;;;;;;;;2.90;85.20;;;;;;5035653;28;20306;-67
2021/04/14 07:57:12;;;;;;;;;;;3.20;84.70;;;;;;5035888;28;19913;-66
2021/04/14 07:59:39;;;;;;;;;;;4.00;82.30;;;;;;5037042;28;19913;-66
2021/04/14 08:02:07;;;;;;;;;;;5.30;80.00;;;;;;5039166;28;19963;-66
2021/04/14 08:04:37;;;;;;;;;;;6.60;74.60;;;;;;5039383;28;19909;-66
2021/04/14 08:07:07;;;;;;;;;;;7.40;72.80;;;;;;5038071;28;19916;-66
2021/04/14 08:09:32;;;;;;;;;;;8.40;70.20;;;;;;5039190;28;20004;-66
2021/04/14 08:12:03;;;;;;;;;;;8.90;67.20;;;;;;5038985;28;19955;-69
2021/04/14 08:14:35;;;;;;;;;;;9.20;66.70;;;;;;5039269;28;19917;-66
2021/04/14 08:17:11;;;;;;;;;;;9.30;65.80;;;;;;5039452;28;20313;-65
2021/04/14 08:19:37;;;;;;;;;;;9.00;66.00;;;;;;5039086;28;19913;-65
2021/04/14 08:22:05;;;;;;;;;;;9.00;66.50;;;;;;5049271;28;19936;-66
2021/04/14 08:24:37;;;;;;;;;;;9.20;66.50;;;;;;5033946;28;19913;-63
2021/04/14 08:27:20;;;;;;;;;;;9.30;65.30;;;;;;5038879;28;19921;-66
2021/04/14 08:30:08;;;;;;;;;;;9.20;65.60;;;;;;5038664;28;20046;-65
2021/04/14 08:32:40;;;;;;;;;;;9.30;66.20;;;;;;5035849;28;19913;-64
2021/04/14 08:35:25;;;;;;;;;;;9.70;65.00;;;;;;5038527;28;19947;-66
2021/04/14 08:38:00;;;;;;;;;;;9.60;64.80;;;;;;5037547;28;20000;-65
2021/04/14 08:40:27;;;;;;;;;;;9.50;64.80;;;;;;5038250;28;19917;-64
2021/04/14 08:42:56;;;;;;;;;;;9.50;62.80;;;;;;5038520;28;19909;-66
2021/04/14 08:45:31;;;;;;;;;;;9.30;63.80;;;;;;5038600;28;19963;-66
2021/04/14 08:48:16;;;;;;;;;;;9.90;64.20;;;;;;5038216;28;19909;-65
2021/04/14 08:50:47;;;;;;;;;;;9.90;62.50;;;;;;5036553;28;20371;-66
2021/04/14 08:53:17;;;;;;;;;;;10.20;62.30;;;;;;5036650;28;19924;-67
2021/04/14 08:55:43;;;;;;;;;;;10.60;61.90;;;;;;5038469;28;19913;-66
2021/04/14 08:58:15;;;;;;;;;;;11.40;61.20;;;;;;5038234;28;20000;-67
2021/04/14 09:00:41;;;;;;;;;;;12.00;58.80;;;;;;5038003;28;20004;-66
2021/04/14 09:03:08;;;;;;;;;;;10.90;57.70;;;;;;5037618;28;19975;-65
2021/04/14 09:05:35;;;;;;;;;;;10.30;58.30;;;;;;5037894;28;19909;-64
2021/04/14 09:08:00;;;;;;;;;;;9.30;61.10;;;;;;5036955;28;19909;-64
2021/04/14 09:10:36;;;;;;;;;;;8.80;64.10;;;;;;5037764;28;19916;-64
2021/04/14 09:13:02;;;;;;;;;;;9.80;62.00;;;;;;5037007;28;20301;-66
2021/04/14 09:15:27;;;;;;;;;;;10.30;60.40;;;;;;5037458;28;20066;-65
2021/04/14 09:18:00;;;;;;;;;;;10.90;59.10;;;;;;5037853;28;20345;-64
2021/04/14 09:20:28;;;;;;;;;;;11.10;59.60;;;;;;5037967;28;19910;-66
2021/04/14 09:23:10;;;;;;;;;;;11.60;57.80;;;;;;5029309;28;19919;-66
2021/04/14 09:25:41;;;;;;;;;;;12.20;57.80;;;;;;5037890;28;20043;-66
2021/04/14 09:28:08;;;;;;;;;;;12.80;56.10;;;;;;5037783;28;19913;-67
2021/04/14 09:30:40;;;;;;;;;;;13.10;53.80;;;;;;5036911;28;19909;-66
2021/04/14 09:33:05;;;;;;;;;;;12.90;53.20;;;;;;5037496;28;20244;-64
2021/04/14 09:35:31;;;;;;;;;;;10.30;54.80;;;;;;5037611;28;19975;-64
2021/04/14 09:38:21;;;;;;;;;;;8.60;60.30;;;;;;5036523;28;20302;-65
2021/04/14 09:40:47;;;;;;;;;;;8.70;59.80;;;;;;5037333;28;19960;-65
2021/04/14 09:43:32;;;;;;;;;;;9.30;60.00;;;;;;5037226;28;19952;-65
2021/04/14 09:46:27;;;;;;;;;;;8.50;60.30;;;;;;5037563;28;19913;-67
2021/04/14 09:48:53;;;;;;;;;;;9.30;56.80;;;;;;5032633;28;20209;-66
2021/04/14 09:51:27;;;;;;;;;;;10.60;54.50;;;;;;5040680;28;19913;-65
2021/04/14 09:53:58;;;;;;;;;;;11.20;54.40;;;;;;5035550;28;19928;-66
2021/04/14 09:56:24;;;;;;;;;;;12.00;53.10;;;;;;5037328;28;19920;-67
2021/04/14 09:59:01;;;;;;;;;;;13.00;53.80;;;;;;5037214;28;19909;-65
2021/04/14 10:01:28;;;;;;;;;;;14.10;51.90;;;;;;5037092;28;20225;-65
2021/04/14 10:03:57;;;;;;;;;;;13.70;51.20;;;;;;5036694;28;19920;-65
2021/04/14 10:06:23;;;;;;;;;;;12.70;48.60;;;;;;5037054;28;19910;-65
2021/04/14 10:08:55;;;;;;;;;;;11.80;50.30;;;;;;5026408;28;19924;-65
2021/04/14 10:11:24;;;;;;;;;;;11.00;51.50;;;;;;5017092;28;19916;-68
2021/04/14 10:13:50;;;;;;;;;;;9.70;53.50;;;;;;5033876;28;19913;-67
2021/04/14 10:16:20;;;;;;;;;;;9.00;57.50;;;;;;5035720;28;19920;-67
2021/04/14 10:18:45;;;;;;;;;;;9.30;57.20;;;;;;5036616;28;19917;-67
2021/04/14 10:21:18;;;;;;;;;;;9.70;59.00;;;;;;5036248;28;20362;-66
2021/04/14 10:23:44;;;;;;;;;;;10.00;58.70;;;;;;5035032;28;19967;-67
2021/04/14 10:26:11;;;;;;;;;;;9.70;58.90;;;;;;5036670;28;19909;-67
2021/04/14 10:28:41;;;;;;;;;;;10.30;59.60;;;;;;5036779;28;19913;-67
2021/04/14 10:31:20;;;;;;;;;;;11.80;57.40;;;;;;5036479;28;20328;-68
2021/04/14 10:33:46;;;;;;;;;;;11.70;54.90;;;;;;5036180;28;20217;-67
2021/04/14 10:36:11;;;;;;;;;;;10.10;57.00;;;;;;5036588;28;19913;-67
2021/04/14 10:38:37;;;;;;;;;;;8.70;56.70;;;;;;5053227;28;19966;-67
2021/04/14 10:41:13;;;;;;;;;;;7.60;59.50;;;;;;5056466;28;19970;-67
2021/04/14 10:43:42;;;;;;;;;;;7.10;61.80;;;;;;5037844;28;19917;-67
2021/04/14 10:46:11;;;;;;;;;;;6.70;61.90;;;;;;5036261;28;20301;-67
2021/04/14 10:48:44;;;;;;;;;;;6.50;64.40;;;;;;5036168;28;19917;-67
2021/04/14 10:51:12;;;;;;;;;;;6.50;61.30;;;;;;5036221;28;20003;-67
2021/04/14 10:53:39;;;;;;;;;;;6.50;63.70;;;;;;5034612;28;19921;-67
2021/04/14 10:56:12;;;;;;;;;;;6.50;62.60;;;;;;5035914;28;20440;-67
2021/04/14 10:58:37;;;;;;;;;;;6.50;61.10;;;;;;5042943;28;19920;-67
2021/04/14 11:01:11;;;;;;;;;;;6.60;63.00;;;;;;5055831;28;19909;-66
2021/04/14 11:03:37;;;;;;;;;;;6.60;63.20;;;;;;5041845;28;19913;-67
2021/04/14 11:06:05;;;;;;;;;;;6.70;63.00;;;;;;5035085;28;19909;-68
2021/04/14 11:08:33;;;;;;;;;;;7.10;61.30;;;;;;5034779;28;19932;-68
2021/04/14 11:11:02;;;;;;;;;;;8.50;62.60;;;;;;5036096;28;20008;-67
2021/04/14 11:13:29;;;;;;;;;;;9.50;57.60;;;;;;5034976;28;20380;-66
2021/04/14 11:15:55;;;;;;;;;;;9.80;56.50;;;;;;5035488;28;19921;-67
2021/04/14 11:18:35;;;;;;;;;;;10.50;56.00;;;;;;5035988;28;19936;-68
2021/04/14 11:23:32;;;;;;;;;;;10.30;58.40;;;;;;5034600;28;19940;-67
2021/04/14 11:26:12;;;;;;;;;;;10.30;58.10;;;;;;5035954;28;19917;-66
2021/04/14 11:28:49;;;;;;;;;;;9.50;55.60;;;;;;5035813;28;20019;-68
2021/04/14 11:31:33;;;;;;;;;;;9.00;56.40;;;;;;5035659;28;20321;-66
2021/04/14 11:34:14;;;;;;;;;;;9.20;56.80;;;;;;5038082;28;19913;-67
2021/04/14 11:36:40;;;;;;;;;;;9.40;56.40;;;;;;5039853;28;19999;-67
2021/04/14 11:39:11;;;;;;;;;;;10.20;58.20;;;;;;5038659;28;20432;-68
2021/04/14 11:41:38;;;;;;;;;;;10.40;56.80;;;;;;5059539;28;20224;-67
2021/04/14 11:44:26;;;;;;;;;;;9.60;57.20;;;;;;5042296;28;20339;-67
2021/04/14 11:46:58;;;;;;;;;;;8.80;59.60;;;;;;5039391;28;20198;-68
2021/04/14 11:49:28;;;;;;;;;;;8.50;59.40;;;;;;5039671;28;19975;-67
2021/04/14 11:51:56;;;;;;;;;;;8.50;60.20;;;;;;5039623;28;19913;-66
2021/04/14 11:54:27;;;;;;;;;;;8.50;58.70;;;;;;5036651;28;19925;-66
2021/04/14 11:57:25;;;;;;;;;;;8.30;60.20;;;;;;5039588;28;20313;-67
2021/04/14 12:00:06;;;;;;;;;;;8.20;60.60;;;;;;5016562;28;20007;-67
2021/04/14 12:02:35;;;;;;;;;;;8.10;59.50;;;;;;5039063;28;19936;-67
2021/04/14 12:05:04;;;;;;;;;;;7.70;60.60;;;;;;5039264;28;19913;-68
2021/04/14 12:07:29;;;;;;;;;;;7.30;62.50;;;;;;5038219;28;19909;-68
2021/04/14 12:09:55;;;;;;;;;;;7.30;64.90;;;;;;5038829;28;20222;-66
2021/04/14 12:12:20;;;;;;;;;;;7.20;62.10;;;;;;5039156;28;20328;-67
2021/04/14 12:14:46;;;;;;;;;;;7.40;63.30;;;;;;5039183;28;20328;-66
2021/04/14 12:17:12;;;;;;;;;;;7.60;62.50;;;;;;5038261;28;19913;-66
2021/04/14 12:19:38;;;;;;;;;;;7.40;62.20;;;;;;5039099;28;20199;-68
2021/04/14 12:22:04;;;;;;;;;;;7.30;62.50;;;;;;5037317;28;19917;-68
2021/04/14 12:24:30;;;;;;;;;;;7.30;63.60;;;;;;5038977;28;19909;-67
2021/04/14 12:26:55;;;;;;;;;;;7.60;62.40;;;;;;5038902;28;19909;-68
2021/04/14 12:29:21;;;;;;;;;;;7.80;62.50;;;;;;5038587;28;19959;-67
2021/04/14 12:31:46;;;;;;;;;;;7.50;63.70;;;;;;5037536;28;19921;-67
2021/04/14 12:34:12;;;;;;;;;;;7.20;64.20;;;;;;5038666;28;19909;-66
2021/04/14 12:36:38;;;;;;;;;;;7.40;64.50;;;;;;5038867;28;19963;-65
2021/04/14 12:39:04;;;;;;;;;;;7.30;64.30;;;;;;5037569;28;19909;-67
2021/04/14 12:41:30;;;;;;;;;;;7.30;65.00;;;;;;5038259;28;19953;-66
2021/04/14 12:43:55;;;;;;;;;;;7.30;64.70;;;;;;5038741;28;20317;-66
2021/04/14 12:46:21;;;;;;;;;;;7.30;65.40;;;;;;5037699;28;19909;-68
2021/04/14 12:48:47;;;;;;;;;;;7.40;65.10;;;;;;5037225;28;19917;-67
2021/04/14 12:51:13;;;;;;;;;;;7.10;64.90;;;;;;5037996;28;19913;-66
2021/04/14 12:53:41;;;;;;;;;;;6.90;65.10;;;;;;5040660;28;19927;-65
2021/04/14 12:56:09;;;;;;;;;;;7.20;65.40;;;;;;5058322;28;19919;-66
2021/04/14 12:58:36;;;;;;;;;;;7.20;64.70;;;;;;5058332;28;20305;-66
2021/04/14 13:01:03;;;;;;;;;;;7.10;65.30;;;;;;5049008;28;19948;-66
2021/04/14 13:03:35;;;;;;;;;;;7.30;65.40;;;;;;5038237;28;19916;-66
2021/04/14 13:06:03;;;;;;;;;;;7.50;65.40;;;;;;5038085;28;19951;-68
2021/04/14 13:08:32;;;;;;;;;;;7.50;65.00;;;;;;5037164;28;19909;-68
2021/04/14 13:11:01;;;;;;;;;;;7.70;64.70;;;;;;5037692;28;19924;-69
2021/04/14 13:13:27;;;;;;;;;;;7.90;63.80;;;;;;5018898;28;19924;-68
2021/04/14 13:15:56;;;;;;;;;;;7.90;63.50;;;;;;5018138;28;20004;-68
2021/04/14 13:18:21;;;;;;;;;;;7.70;62.90;;;;;;5047790;28;19913;-69
2021/04/14 13:20:54;;;;;;;;;;;8.00;63.60;;;;;;5053346;28;20314;-68
2021/04/14 13:23:38;;;;;;;;;;;7.90;61.80;;;;;;5036614;28;19909;-68
2021/04/14 13:26:04;;;;;;;;;;;7.80;61.30;;;;;;5037753;28;19909;-68
2021/04/14 13:28:43;;;;;;;;;;;7.90;62.90;;;;;;5037851;28;20003;-68
2021/04/14 13:31:16;;;;;;;;;;;8.30;63.10;;;;;;5037502;28;19913;-67
2021/04/14 13:34:00;;;;;;;;;;;8.10;62.10;;;;;;5037638;28;20336;-68
2021/04/14 13:36:32;;;;;;;;;;;8.10;62.20;;;;;;5035769;28;20221;-68
2021/04/14 13:38:59;;;;;;;;;;;8.20;61.40;;;;;;5036327;28;19966;-68
2021/04/14 13:41:31;;;;;;;;;;;8.10;61.20;;;;;;5041830;28;19944;-68
2021/04/14 13:44:01;;;;;;;;;;;8.10;61.90;;;;;;5036641;28;19956;-68
2021/04/14 13:46:46;;;;;;;;;;;7.90;62.20;;;;;;5036155;28;19917;-68
2021/04/14 13:49:15;;;;;;;;;;;7.90;62.10;;;;;;5037191;28;20003;-68
2021/04/14 13:51:40;;;;;;;;;;;8.10;59.70;;;;;;5036964;28;19913;-68
2021/04/14 13:54:07;;;;;;;;;;;7.80;60.40;;;;;;5035986;28;19928;-68
2021/04/14 13:56:37;;;;;;;;;;;7.90;60.20;;;;;;5036755;28;19913;-67
2021/04/14 13:59:11;;;;;;;;;;;8.00;61.50;;;;;;5037223;28;20004;-67
2021/04/14 14:01:40;;;;;;;;;;;7.80;61.60;;;;;;5036896;28;19959;-67
2021/04/14 14:04:06;;;;;;;;;;;7.70;61.70;;;;;;5037038;28;20313;-67
2021/04/14 14:06:31;;;;;;;;;;;7.90;60.70;;;;;;5037252;28;19916;-68
2021/04/14 14:08:59;;;;;;;;;;;8.30;59.60;;;;;;5035911;28;20302;-67
2021/04/14 14:11:26;;;;;;;;;;;8.10;59.20;;;;;;5036240;28;20012;-68
2021/04/14 14:14:00;;;;;;;;;;;7.90;60.90;;;;;;5037039;28;20011;-69
2021/04/14 14:16:33;;;;;;;;;;;8.00;61.90;;;;;;5036588;28;20268;-68
2021/04/14 14:19:28;;;;;;;;;;;8.60;61.50;;;;;;5036366;28;19913;-67
2021/04/14 14:21:54;;;;;;;;;;;8.80;60.00;;;;;;5030085;28;19913;-67
2021/04/14 14:24:20;;;;;;;;;;;8.90;61.80;;;;;;5035956;28;19920;-67
2021/04/14 14:26:47;;;;;;;;;;;8.90;61.10;;;;;;5036269;28;20341;-67
2021/04/14 14:29:14;;;;;;;;;;;8.70;60.70;;;;;;5036670;28;19909;-67
2021/04/14 14:31:42;;;;;;;;;;;9.00;60.40;;;;;;5036403;28;19917;-66
2021/04/14 14:34:09;;;;;;;;;;;8.90;60.30;;;;;;5036294;28;19969;-67
2021/04/14 14:36:48;;;;;;;;;;;8.80;59.90;;;;;;5035173;28;19943;-67
2021/04/14 14:39:20;;;;;;;;;;;8.60;59.60;;;;;;5034875;28;19913;-68
2021/04/14 14:41:48;;;;;;;;;;;8.50;61.30;;;;;;5028463;28;20211;-67